Aviation Digital Data Service (ADDS)

Output produced by METARs form (0654 UTC 20 March 2019)
found at http://www.aviationweather.gov/metar/data/
 
METAR text: ETAR 200556Z AUTO 00000KT 9999 CLR M04/M05 A3052 RMK AO2 SLPNO T10421055 11017 21046 52012 $
Conditions at: ETAR (RAMSTEIN (USAFB), DE) observed 0556 UTC 20 March 2019
Temperature: -4.2°C (24°F)
Dewpoint: -5.5°C (22°F) [RH = 91%]
Pressure (altimeter): 30.52 inches Hg (1033.6 mb)
Winds: calm
Visibility: 6 or more miles (10+ km)
Ceiling: at least 12,000 feet AGL
Clouds: sky clear below 12,000 feet AGL
Weather:
SOME DATA ABOVE MAY BE INACCURATE!!!
"$" is an indication the sensor requires maintenance

METAR text: ETAR 200456Z AUTO 00000KT 9999 CLR M03/M05 A3050 RMK AO2 SLPNO T10331046 $
Conditions at: ETAR (RAMSTEIN (USAFB), DE) observed 0456 UTC 20 March 2019
Temperature: -3.3°C (26°F)
Dewpoint: -4.6°C (24°F) [RH = 91%]
Pressure (altimeter): 30.50 inches Hg (1032.9 mb)
Winds: calm
Visibility: 6 or more miles (10+ km)
Ceiling: at least 12,000 feet AGL
Clouds: sky clear below 12,000 feet AGL
Weather:
SOME DATA ABOVE MAY BE INACCURATE!!!
"$" is an indication the sensor requires maintenance

METAR text: ETAR 200356Z AUTO 00000KT 9999 CLR M04/M05 A3049 RMK AO2 SLPNO T10361047 $
Conditions at: ETAR (RAMSTEIN (USAFB), DE) observed 0356 UTC 20 March 2019
Temperature: -3.6°C (26°F)
Dewpoint: -4.7°C (24°F) [RH = 92%]
Pressure (altimeter): 30.49 inches Hg (1032.6 mb)
Winds: calm
Visibility: 6 or more miles (10+ km)
Ceiling: at least 12,000 feet AGL
Clouds: sky clear below 12,000 feet AGL
Weather:
SOME DATA ABOVE MAY BE INACCURATE!!!
"$" is an indication the sensor requires maintenance

METAR text: ETAR 200256Z AUTO 00000KT 9999 CLR M04/M05 A3048 RMK AO2 SLPNO T10371047 50000 $
Conditions at: ETAR (RAMSTEIN (USAFB), DE) observed 0256 UTC 20 March 2019
Temperature: -3.7°C (25°F)
Dewpoint: -4.7°C (24°F) [RH = 93%]
Pressure (altimeter): 30.48 inches Hg (1032.3 mb)
Winds: calm
Visibility: 6 or more miles (10+ km)
Ceiling: at least 12,000 feet AGL
Clouds: sky clear below 12,000 feet AGL
Weather:
SOME DATA ABOVE MAY BE INACCURATE!!!
"$" is an indication the sensor requires maintenance

METAR text: ETAR 200156Z AUTO 00000KT 9999 CLR M03/M04 A3048 RMK AO2 SLPNO T10321042 $
Conditions at: ETAR (RAMSTEIN (USAFB), DE) observed 0156 UTC 20 March 2019
Temperature: -3.2°C (26°F)
Dewpoint: -4.2°C (24°F) [RH = 93%]
Pressure (altimeter): 30.48 inches Hg (1032.3 mb)
Winds: calm
Visibility: 6 or more miles (10+ km)
Ceiling: at least 12,000 feet AGL
Clouds: sky clear below 12,000 feet AGL
Weather:
SOME DATA ABOVE MAY BE INACCURATE!!!
"$" is an indication the sensor requires maintenance

METAR text: ETAR 200056Z AUTO 00000KT 9999 CLR M02/M03 A3048 RMK AO2 SLP335 T10211035 $
Conditions at: ETAR (RAMSTEIN (USAFB), DE) observed 0056 UTC 20 March 2019
Temperature: -2.1°C (28°F)
Dewpoint: -3.5°C (26°F) [RH = 90%]
Pressure (altimeter): 30.48 inches Hg (1032.3 mb)
[Sea-level pressure: 1033.5 mb]
Winds: calm
Visibility: 6 or more miles (10+ km)
Ceiling: at least 12,000 feet AGL
Clouds: sky clear below 12,000 feet AGL
Weather:
SOME DATA ABOVE MAY BE INACCURATE!!!
"$" is an indication the sensor requires maintenance

METAR text: ETAR 192356Z AUTO 00000KT 9999 CLR M03/M04 A3048 RMK AO2 SLP336 T10311042 10004 21031 $
Conditions at: ETAR (RAMSTEIN (USAFB), DE) observed 2356 UTC 19 March 2019
Temperature: -3.1°C (26°F)
Dewpoint: -4.2°C (24°F) [RH = 92%]
Pressure (altimeter): 30.48 inches Hg (1032.3 mb)
[Sea-level pressure: 1033.6 mb]
Winds: calm
Visibility: 6 or more miles (10+ km)
Ceiling: at least 12,000 feet AGL
Clouds: sky clear below 12,000 feet AGL
Weather:
SOME DATA ABOVE MAY BE INACCURATE!!!
"$" is an indication the sensor requires maintenance

METAR text: ETAR 192256Z AUTO 00000KT 9999 CLR M01/M03 A3047 RMK AO2 SLP332 T10091030 400981030 $
Conditions at: ETAR (RAMSTEIN (USAFB), DE) observed 2256 UTC 19 March 2019
Temperature: -0.9°C (30°F)
Dewpoint: -3.0°C (27°F) [RH = 86%]
Pressure (altimeter): 30.47 inches Hg (1031.9 mb)
[Sea-level pressure: 1033.2 mb]
Winds: calm
Visibility: 6 or more miles (10+ km)
Ceiling: at least 12,000 feet AGL
Clouds: sky clear below 12,000 feet AGL
Weather:
SOME DATA ABOVE MAY BE INACCURATE!!!
"$" is an indication the sensor requires maintenance

METAR text: ETAR 192156Z AUTO 00000KT 9999 CLR M02/M03 A3046 RMK AO2 SLP330 T10171030 $
Conditions at: ETAR (RAMSTEIN (USAFB), DE) observed 2156 UTC 19 March 2019
Temperature: -1.7°C (29°F)
Dewpoint: -3.0°C (27°F) [RH = 91%]
Pressure (altimeter): 30.46 inches Hg (1031.6 mb)
[Sea-level pressure: 1033.0 mb]
Winds: calm
Visibility: 6 or more miles (10+ km)
Ceiling: at least 12,000 feet AGL
Clouds: sky clear below 12,000 feet AGL
Weather:
SOME DATA ABOVE MAY BE INACCURATE!!!
"$" is an indication the sensor requires maintenance

METAR text: ETAR 192056Z AUTO 00000KT 9999 CLR M01/M02 A3044 RMK AO2 SLP324 T10081025 52018 $
Conditions at: ETAR (RAMSTEIN (USAFB), DE) observed 2056 UTC 19 March 2019
Temperature: -0.8°C (31°F)
Dewpoint: -2.5°C (28°F) [RH = 88%]
Pressure (altimeter): 30.44 inches Hg (1030.9 mb)
[Sea-level pressure: 1032.4 mb]
Winds: calm
Visibility: 6 or more miles (10+ km)
Ceiling: at least 12,000 feet AGL
Clouds: sky clear below 12,000 feet AGL
Weather:
SOME DATA ABOVE MAY BE INACCURATE!!!
"$" is an indication the sensor requires maintenance

METAR text: ETAR 191956Z AUTO 09004KT 9999 CLR 01/M02 A3042 RMK AO2 SLP317 T00081016 $
Conditions at: ETAR (RAMSTEIN (USAFB), DE) observed 1956 UTC 19 March 2019
Temperature: 0.8°C (33°F)
Dewpoint: -1.6°C (29°F) [RH = 84%]
Pressure (altimeter): 30.42 inches Hg (1030.2 mb)
[Sea-level pressure: 1031.7 mb]
Winds: from the E (90 degrees) at 5 MPH (4 knots; 2.1 m/s)
Visibility: 6 or more miles (10+ km)
Ceiling: at least 12,000 feet AGL
Clouds: sky clear below 12,000 feet AGL
Weather:
SOME DATA ABOVE MAY BE INACCURATE!!!
"$" is an indication the sensor requires maintenance

METAR text: ETAR 191856Z AUTO 00000KT 9999 CLR 02/M01 A3041 RMK AO2 SLP315 T00171007 $
Conditions at: ETAR (RAMSTEIN (USAFB), DE) observed 1856 UTC 19 March 2019
Temperature: 1.7°C (35°F)
Dewpoint: -0.7°C (31°F) [RH = 84%]
Pressure (altimeter): 30.41 inches Hg (1029.9 mb)
[Sea-level pressure: 1031.5 mb]
Winds: calm
Visibility: 6 or more miles (10+ km)
Ceiling: at least 12,000 feet AGL
Clouds: sky clear below 12,000 feet AGL
Weather:
SOME DATA ABOVE MAY BE INACCURATE!!!
"$" is an indication the sensor requires maintenance

METAR text: ETAR 191756Z AUTO 00000KT 9999 CLR 05/M01 A3039 RMK AO2 SLP307 T00511007 10114 20050 53016 $
Conditions at: ETAR (RAMSTEIN (USAFB), DE) observed 1756 UTC 19 March 2019
Temperature: 5.1°C (41°F)
Dewpoint: -0.7°C (31°F) [RH = 66%]
Pressure (altimeter): 30.39 inches Hg (1029.2 mb)
[Sea-level pressure: 1030.7 mb]
Winds: calm
Visibility: 6 or more miles (10+ km)
Ceiling: at least 12,000 feet AGL
Clouds: sky clear below 12,000 feet AGL
Weather:
SOME DATA ABOVE MAY BE INACCURATE!!!
"$" is an indication the sensor requires maintenance

METAR text: ETAR 191656Z AUTO 00000KT 9999 CLR 10/M03 A3037 RMK AO2 SLP297 T00951034 $
Conditions at: ETAR (RAMSTEIN (USAFB), DE) observed 1656 UTC 19 March 2019
Temperature: 9.5°C (49°F)
Dewpoint: -3.4°C (26°F) [RH = 40%]
Pressure (altimeter): 30.37 inches Hg (1028.5 mb)
[Sea-level pressure: 1029.7 mb]
Winds: calm
Visibility: 6 or more miles (10+ km)
Ceiling: at least 12,000 feet AGL
Clouds: sky clear below 12,000 feet AGL
Weather:
SOME DATA ABOVE MAY BE INACCURATE!!!
"$" is an indication the sensor requires maintenance

METAR text: ETAR 191556Z AUTO 05003KT 9999 CLR 11/M03 A3034 RMK AO2 SLP287 T01051032 $
Conditions at: ETAR (RAMSTEIN (USAFB), DE) observed 1556 UTC 19 March 2019
Temperature: 10.5°C (51°F)
Dewpoint: -3.2°C (26°F) [RH = 38%]
Pressure (altimeter): 30.34 inches Hg (1027.5 mb)
[Sea-level pressure: 1028.7 mb]
Winds: from the NE (50 degrees) at 3 MPH (3 knots; 1.5 m/s)
Visibility: 6 or more miles (10+ km)
Ceiling: at least 12,000 feet AGL
Clouds: sky clear below 12,000 feet AGL
Weather:
SOME DATA ABOVE MAY BE INACCURATE!!!
"$" is an indication the sensor requires maintenance

METAR text: ETAR 191456Z AUTO 00000KT 9999 CLR 10/M04 A3034 RMK AO2 SLP286 T01041037 58003 $
Conditions at: ETAR (RAMSTEIN (USAFB), DE) observed 1456 UTC 19 March 2019
Temperature: 10.4°C (51°F)
Dewpoint: -3.7°C (25°F) [RH = 37%]
Pressure (altimeter): 30.34 inches Hg (1027.5 mb)
[Sea-level pressure: 1028.6 mb]
Winds: calm
Visibility: 6 or more miles (10+ km)
Ceiling: at least 12,000 feet AGL
Clouds: sky clear below 12,000 feet AGL
Weather:
SOME DATA ABOVE MAY BE INACCURATE!!!
"$" is an indication the sensor requires maintenance

METAR text: ETAR 191356Z AUTO 30006KT 9999 CLR 10/M04 A3034 RMK AO2 SLP286 T01001037 $
Conditions at: ETAR (RAMSTEIN (USAFB), DE) observed 1356 UTC 19 March 2019
Temperature: 10.0°C (50°F)
Dewpoint: -3.7°C (25°F) [RH = 38%]
Pressure (altimeter): 30.34 inches Hg (1027.5 mb)
[Sea-level pressure: 1028.6 mb]
Winds: from the WNW (300 degrees) at 7 MPH (6 knots; 3.1 m/s)
Visibility: 6 or more miles (10+ km)
Ceiling: at least 12,000 feet AGL
Clouds: sky clear below 12,000 feet AGL
Weather:
SOME DATA ABOVE MAY BE INACCURATE!!!
"$" is an indication the sensor requires maintenance

METAR text: ETAR 191256Z AUTO 33003KT 9999 CLR 10/M03 A3035 RMK AO2 SLP288 T00981035 $
Conditions at: ETAR (RAMSTEIN (USAFB), DE) observed 1256 UTC 19 March 2019
Temperature: 9.8°C (50°F)
Dewpoint: -3.5°C (26°F) [RH = 39%]
Pressure (altimeter): 30.35 inches Hg (1027.9 mb)
[Sea-level pressure: 1028.8 mb]
Winds: from the NNW (330 degrees) at 3 MPH (3 knots; 1.5 m/s)
Visibility: 6 or more miles (10+ km)
Ceiling: at least 12,000 feet AGL
Clouds: sky clear below 12,000 feet AGL
Weather:
SOME DATA ABOVE MAY BE INACCURATE!!!
"$" is an indication the sensor requires maintenance

METAR text: ETAR 191156Z AUTO 25003KT 9999 SCT047 09/M03 A3035 RMK AO2 SLP288 T00881028 10090 21016 50001 $
Conditions at: ETAR (RAMSTEIN (USAFB), DE) observed 1156 UTC 19 March 2019
Temperature: 8.8°C (48°F)
Dewpoint: -2.8°C (27°F) [RH = 44%]
Pressure (altimeter): 30.35 inches Hg (1027.9 mb)
[Sea-level pressure: 1028.8 mb]
Winds: from the WSW (250 degrees) at 3 MPH (3 knots; 1.5 m/s)
Visibility: 6 or more miles (10+ km)
Ceiling: at least 12,000 feet AGL
Clouds: scattered clouds at 4700 feet AGL
Weather:
SOME DATA ABOVE MAY BE INACCURATE!!!
"$" is an indication the sensor requires maintenance

METAR text: ETAR 191056Z AUTO 00000KT 9999 CLR 08/M02 A3035 RMK AO2 SLP290 T00801023 $
Conditions at: ETAR (RAMSTEIN (USAFB), DE) observed 1056 UTC 19 March 2019
Temperature: 8.0°C (46°F)
Dewpoint: -2.3°C (28°F) [RH = 48%]
Pressure (altimeter): 30.35 inches Hg (1027.9 mb)
[Sea-level pressure: 1029.0 mb]
Winds: calm
Visibility: 6 or more miles (10+ km)
Ceiling: at least 12,000 feet AGL
Clouds: sky clear below 12,000 feet AGL
Weather:
SOME DATA ABOVE MAY BE INACCURATE!!!
"$" is an indication the sensor requires maintenance

METAR text: ETAR 190956Z 01003KT 9999 CLR 07/M03 A3035 RMK AO2A SLP288 T00691028 $
Conditions at: ETAR (RAMSTEIN (USAFB), DE) observed 0956 UTC 19 March 2019
Temperature: 6.9°C (44°F)
Dewpoint: -2.8°C (27°F) [RH = 50%]
Pressure (altimeter): 30.35 inches Hg (1027.9 mb)
[Sea-level pressure: 1028.8 mb]
Winds: from the N (10 degrees) at 3 MPH (3 knots; 1.5 m/s)
Visibility: 6 or more miles (10+ km)
Ceiling: at least 12,000 feet AGL
Clouds: sky clear below 12,000 feet AGL
Weather:
SOME DATA ABOVE MAY BE INACCURATE!!!
"$" is an indication the sensor requires maintenance

METAR text: ETAR 190856Z 00000KT 9999 CLR 05/00 A3035 RMK AO2A SLP291 T00540002 52013 $
Conditions at: ETAR (RAMSTEIN (USAFB), DE) observed 0856 UTC 19 March 2019
Temperature: 5.4°C (42°F)
Dewpoint: 0.2°C (32°F) [RH = 69%]
Pressure (altimeter): 30.35 inches Hg (1027.9 mb)
[Sea-level pressure: 1029.1 mb]
Winds: calm
Visibility: 6 or more miles (10+ km)
Ceiling: at least 12,000 feet AGL
Clouds: sky clear below 12,000 feet AGL
Weather:
SOME DATA ABOVE MAY BE INACCURATE!!!
"$" is an indication the sensor requires maintenance

METAR text: ETAR 190756Z 00000KT 9999 CLR 03/00 A3034 RMK AO2A SLP288 T00300004 $
Conditions at: ETAR (RAMSTEIN (USAFB), DE) observed 0756 UTC 19 March 2019
Temperature: 3.0°C (37°F)
Dewpoint: 0.4°C (33°F) [RH = 83%]
Pressure (altimeter): 30.34 inches Hg (1027.5 mb)
[Sea-level pressure: 1028.8 mb]
Winds: calm
Visibility: 6 or more miles (10+ km)
Ceiling: at least 12,000 feet AGL
Clouds: sky clear below 12,000 feet AGL
Weather:
SOME DATA ABOVE MAY BE INACCURATE!!!
"$" is an indication the sensor requires maintenance

METAR text: ETAR 190656Z 00000KT 9999 BKN050 00/M01 A3032 RMK AO2A SCT V BKN SLP283 T10011012 $
Conditions at: ETAR (RAMSTEIN (USAFB), DE) observed 0656 UTC 19 March 2019
Temperature: -0.1°C (32°F)
Dewpoint: -1.2°C (30°F) [RH = 92%]
Pressure (altimeter): 30.32 inches Hg (1026.8 mb)
[Sea-level pressure: 1028.3 mb]
Winds: calm
Visibility: 6 or more miles (10+ km)
Ceiling: 5000 feet AGL
Clouds: broken clouds at 5000 feet AGL
Weather:
SOME DATA ABOVE MAY BE INACCURATE!!!
"$" is an indication the sensor requires maintenance

METAR text: ETAR 190556Z AUTO 00000KT 9999 SCT045 OVC050 M02/M02 A3031 RMK AO2 SLP280 T10171025 10023 21030 52019 $
Conditions at: ETAR (RAMSTEIN (USAFB), DE) observed 0556 UTC 19 March 2019
Temperature: -1.7°C (29°F)
Dewpoint: -2.5°C (28°F) [RH = 94%]
Pressure (altimeter): 30.31 inches Hg (1026.5 mb)
[Sea-level pressure: 1028.0 mb]
Winds: calm
Visibility: 6 or more miles (10+ km)
Ceiling: 5000 feet AGL
Clouds: scattered clouds at 4500 feet AGL
overcast cloud deck at 5000 feet AGL
Weather:
SOME DATA ABOVE MAY BE INACCURATE!!!
"$" is an indication the sensor requires maintenance

METAR text: ETAR 190456Z AUTO 00000KT 9999 CLR M03/M04 A3029 RMK AO2 SLP273 T10301037 $
Conditions at: ETAR (RAMSTEIN (USAFB), DE) observed 0456 UTC 19 March 2019
Temperature: -3.0°C (27°F)
Dewpoint: -3.7°C (25°F) [RH = 95%]
Pressure (altimeter): 30.29 inches Hg (1025.8 mb)
[Sea-level pressure: 1027.3 mb]
Winds: calm
Visibility: 6 or more miles (10+ km)
Ceiling: at least 12,000 feet AGL
Clouds: sky clear below 12,000 feet AGL
Weather:
SOME DATA ABOVE MAY BE INACCURATE!!!
"$" is an indication the sensor requires maintenance

METAR text: ETAR 190356Z AUTO 00000KT 9999 CLR M03/M03 A3027 RMK AO2 VIS 3600 RWY08 SLP266 T10271034 $
Conditions at: ETAR (RAMSTEIN (USAFB), DE) observed 0356 UTC 19 March 2019
Temperature: -2.7°C (27°F)
Dewpoint: -3.4°C (26°F) [RH = 95%]
Pressure (altimeter): 30.27 inches Hg (1025.1 mb)
[Sea-level pressure: 1026.6 mb]
Winds: calm
Visibility: 6 or more miles (10+ km)
Ceiling: at least 12,000 feet AGL
Clouds: sky clear below 12,000 feet AGL
Weather:
SOME DATA ABOVE MAY BE INACCURATE!!!
"$" is an indication the sensor requires maintenance

METAR text: ETAR 190256Z AUTO 00000KT 9999 CLR M01/M02 A3025 RMK AO2 SLP257 T10091017 52004 $
Conditions at: ETAR (RAMSTEIN (USAFB), DE) observed 0256 UTC 19 March 2019
Temperature: -0.9°C (30°F)
Dewpoint: -1.7°C (29°F) [RH = 94%]
Pressure (altimeter): 30.25 inches Hg (1024.5 mb)
[Sea-level pressure: 1025.7 mb]
Winds: calm
Visibility: 6 or more miles (10+ km)
Ceiling: at least 12,000 feet AGL
Clouds: sky clear below 12,000 feet AGL
Weather:
SOME DATA ABOVE MAY BE INACCURATE!!!
"$" is an indication the sensor requires maintenance

METAR text: ETAR 190156Z AUTO 00000KT 9999 FEW065 00/M01 A3024 RMK AO2 SLP254 T10041013 $
Conditions at: ETAR (RAMSTEIN (USAFB), DE) observed 0156 UTC 19 March 2019
Temperature: -0.4°C (31°F)
Dewpoint: -1.3°C (30°F) [RH = 94%]
Pressure (altimeter): 30.24 inches Hg (1024.1 mb)
[Sea-level pressure: 1025.4 mb]
Winds: calm
Visibility: 6 or more miles (10+ km)
Ceiling: at least 12,000 feet AGL
Clouds: few clouds at 6500 feet AGL
Weather:
SOME DATA ABOVE MAY BE INACCURATE!!!
"$" is an indication the sensor requires maintenance

METAR text: ETAR 190056Z AUTO 00000KT 9999 OVC065 02/01 A3024 RMK AO2 SLPNO T00170007 $
Conditions at: ETAR (RAMSTEIN (USAFB), DE) observed 0056 UTC 19 March 2019
Temperature: 1.7°C (35°F)
Dewpoint: 0.7°C (33°F) [RH = 93%]
Pressure (altimeter): 30.24 inches Hg (1024.1 mb)
Winds: calm
Visibility: 6 or more miles (10+ km)
Ceiling: 6500 feet AGL
Clouds: overcast cloud deck at 6500 feet AGL
Weather:
SOME DATA ABOVE MAY BE INACCURATE!!!
"$" is an indication the sensor requires maintenance

METAR text: ETAR 182356Z AUTO 00000KT 9999 OVC065 02/01 A3024 RMK AO2 SLP252 T00200008 10049 20014 52009 $
Conditions at: ETAR (RAMSTEIN (USAFB), DE) observed 2356 UTC 18 March 2019
Temperature: 2.0°C (36°F)
Dewpoint: 0.8°C (33°F) [RH = 92%]
Pressure (altimeter): 30.24 inches Hg (1024.1 mb)
[Sea-level pressure: 1025.2 mb]
Winds: calm
Visibility: 6 or more miles (10+ km)
Ceiling: 6500 feet AGL
Clouds: overcast cloud deck at 6500 feet AGL
Weather:
SOME DATA ABOVE MAY BE INACCURATE!!!
"$" is an indication the sensor requires maintenance

METAR text: ETAR 182256Z AUTO 00000KT 9999 SCT065 02/01 A3023 RMK AO2 SLP250 T00240011 400970019 $
Conditions at: ETAR (RAMSTEIN (USAFB), DE) observed 2256 UTC 18 March 2019
Temperature: 2.4°C (36°F)
Dewpoint: 1.1°C (34°F) [RH = 91%]
Pressure (altimeter): 30.23 inches Hg (1023.8 mb)
[Sea-level pressure: 1025.0 mb]
Winds: calm
Visibility: 6 or more miles (10+ km)
Ceiling: at least 12,000 feet AGL
Clouds: scattered clouds at 6500 feet AGL
Weather:
SOME DATA ABOVE MAY BE INACCURATE!!!
"$" is an indication the sensor requires maintenance

METAR text: ETAR 182156Z AUTO 00000KT 9999 BKN060 04/02 A3022 RMK AO2 SLP245 T00400015 $
Conditions at: ETAR (RAMSTEIN (USAFB), DE) observed 2156 UTC 18 March 2019
Temperature: 4.0°C (39°F)
Dewpoint: 1.5°C (35°F) [RH = 84%]
Pressure (altimeter): 30.22 inches Hg (1023.5 mb)
[Sea-level pressure: 1024.5 mb]
Winds: calm
Visibility: 6 or more miles (10+ km)
Ceiling: 6000 feet AGL
Clouds: broken clouds at 6000 feet AGL
Weather:
SOME DATA ABOVE MAY BE INACCURATE!!!
"$" is an indication the sensor requires maintenance

METAR text: ETAR 182056Z 00000KT 9999 FEW043 SCT070 04/01 A3021 RMK AO2A SLP243 T00350012 52017 $
Conditions at: ETAR (RAMSTEIN (USAFB), DE) observed 2056 UTC 18 March 2019
Temperature: 3.5°C (38°F)
Dewpoint: 1.2°C (34°F) [RH = 85%]
Pressure (altimeter): 30.21 inches Hg (1023.1 mb)
[Sea-level pressure: 1024.3 mb]
Winds: calm
Visibility: 6 or more miles (10+ km)
Ceiling: at least 12,000 feet AGL
Clouds: few clouds at 4300 feet AGL
scattered clouds at 7000 feet AGL
Weather:
SOME DATA ABOVE MAY BE INACCURATE!!!
"$" is an indication the sensor requires maintenance

METAR text: ETAR 181956Z 00000KT 9999 FEW043 BKN055 BKN065 OVC090 04/01 A3019 RMK AO2A SLP236 T00390013 $
Conditions at: ETAR (RAMSTEIN (USAFB), DE) observed 1956 UTC 18 March 2019
Temperature: 3.9°C (39°F)
Dewpoint: 1.3°C (34°F) [RH = 83%]
Pressure (altimeter): 30.19 inches Hg (1022.4 mb)
[Sea-level pressure: 1023.6 mb]
Winds: calm
Visibility: 6 or more miles (10+ km)
Ceiling: 5500 feet AGL
Clouds: few clouds at 4300 feet AGL
broken clouds at 5500 feet AGL
broken clouds at 6500 feet AGL
overcast cloud deck at 9000 feet AGL
Weather:
SOME DATA ABOVE MAY BE INACCURATE!!!
"$" is an indication the sensor requires maintenance

METAR text: ETAR 181856Z 25003KT 9999 FEW085 03/00 A3017 RMK AO2A SLP230 T00320004 $
Conditions at: ETAR (RAMSTEIN (USAFB), DE) observed 1856 UTC 18 March 2019
Temperature: 3.2°C (38°F)
Dewpoint: 0.4°C (33°F) [RH = 82%]
Pressure (altimeter): 30.17 inches Hg (1021.8 mb)
[Sea-level pressure: 1023.0 mb]
Winds: from the WSW (250 degrees) at 3 MPH (3 knots; 1.5 m/s)
Visibility: 6 or more miles (10+ km)
Ceiling: at least 12,000 feet AGL
Clouds: few clouds at 8500 feet AGL
Weather:
SOME DATA ABOVE MAY BE INACCURATE!!!
"$" is an indication the sensor requires maintenance

Forecast for: ETAR (RAMSTEIN (USAFB), DE)
Text: TAF ETAR 200200Z 2002/2108 VRB06KT 9999 SKC QNH3047INS
Forecast period: 0200 to 0300 UTC 20 March 2019
Forecast type: FROM: standard forecast or significant change
Winds: variable direction winds at 7 MPH (6 knots; 3.1 m/s)
Visibility: 6 or more miles 10+ km)
Clouds: clear skies
Weather: no significant weather forecast for this period
Text: BECMG 2003/2004 VRB06KT 9999 FEW030 SCT250 QNH3048INS TX12/2014Z TNM04/2006Z
Forecast period: 0300 UTC 20 March 2019 to 0800 UTC 21 March 2019
Forecast type: BECOMING: Conditions expected to become as follows by 0400 UTC 20 March 2019
Winds: variable direction winds at 7 MPH (6 knots; 3.1 m/s)
Visibility: 6 or more miles 10+ km)
Ceiling: at least 12,000 feet AGL
Clouds: few clouds at 3000 feet AGL
scattered clouds at 25000 feet AGL
Weather: no significant weather forecast for this period